sensor_id;sensor_type;location;lat;lon;timestamp;temperature;humidity
15574;DHT22;7888;46.748;8.102;2023-03-01T00:01:13;5.70;46.00
15574;DHT22;7888;46.748;8.102;2023-03-01T00:03:41;5.70;46.00
15574;DHT22;7888;46.748;8.102;2023-03-01T00:06:08;5.70;45.90
15574;DHT22;7888;46.748;8.102;2023-03-01T00:08:34;5.70;45.90
15574;DHT22;7888;46.748;8.102;2023-03-01T00:11:02;5.70;45.80
15574;DHT22;7888;46.748;8.102;2023-03-01T00:13:35;5.70;45.80
15574;DHT22;7888;46.748;8.102;2023-03-01T00:16:07;5.70;45.80
15574;DHT22;7888;46.748;8.102;2023-03-01T00:18:34;5.70;45.80
15574;DHT22;7888;46.748;8.102;2023-03-01T00:21:00;5.70;45.80
15574;DHT22;7888;46.748;8.102;2023-03-01T00:23:26;5.70;45.80
15574;DHT22;7888;46.748;8.102;2023-03-01T00:25:53;5.70;45.70
15574;DHT22;7888;46.748;8.102;2023-03-01T00:28:19;5.70;45.80
15574;DHT22;7888;46.748;8.102;2023-03-01T00:30:46;5.70;45.70
15574;DHT22;7888;46.748;8.102;2023-03-01T00:33:12;5.60;45.60
15574;DHT22;7888;46.748;8.102;2023-03-01T00:35:38;5.60;45.70
15574;DHT22;7888;46.748;8.102;2023-03-01T00:38:05;5.60;45.80
15574;DHT22;7888;46.748;8.102;2023-03-01T00:40:33;5.60;45.80
15574;DHT22;7888;46.748;8.102;2023-03-01T00:43:01;5.60;45.80
15574;DHT22;7888;46.748;8.102;2023-03-01T00:45:28;5.60;45.80
15574;DHT22;7888;46.748;8.102;2023-03-01T00:47:54;5.60;45.70
15574;DHT22;7888;46.748;8.102;2023-03-01T00:50:20;5.50;45.60
15574;DHT22;7888;46.748;8.102;2023-03-01T00:52:46;5.50;45.60
15574;DHT22;7888;46.748;8.102;2023-03-01T00:55:12;5.50;45.60
15574;DHT22;7888;46.748;8.102;2023-03-01T00:57:38;5.50;45.70
15574;DHT22;7888;46.748;8.102;2023-03-01T01:00:05;5.50;45.60
15574;DHT22;7888;46.748;8.102;2023-03-01T01:02:33;5.40;45.70
15574;DHT22;7888;46.748;8.102;2023-03-01T01:04:59;5.40;45.70
15574;DHT22;7888;46.748;8.102;2023-03-01T01:07:25;5.40;45.80
15574;DHT22;7888;46.748;8.102;2023-03-01T01:09:51;5.30;45.80
15574;DHT22;7888;46.748;8.102;2023-03-01T01:12:17;5.30;45.80
15574;DHT22;7888;46.748;8.102;2023-03-01T01:14:43;5.20;45.80
15574;DHT22;7888;46.748;8.102;2023-03-01T01:17:09;5.20;45.80
15574;DHT22;7888;46.748;8.102;2023-03-01T01:19:35;5.20;46.00
15574;DHT22;7888;46.748;8.102;2023-03-01T01:22:01;5.20;45.90
15574;DHT22;7888;46.748;8.102;2023-03-01T01:24:27;5.10;45.90
15574;DHT22;7888;46.748;8.102;2023-03-01T01:26:53;5.10;46.00
15574;DHT22;7888;46.748;8.102;2023-03-01T01:29:19;5.00;46.00
15574;DHT22;7888;46.748;8.102;2023-03-01T01:31:44;5.00;46.10
15574;DHT22;7888;46.748;8.102;2023-03-01T01:34:16;5.00;46.20
15574;DHT22;7888;46.748;8.102;2023-03-01T01:36:47;4.90;46.30
15574;DHT22;7888;46.748;8.102;2023-03-01T01:39:15;5.00;46.30
15574;DHT22;7888;46.748;8.102;2023-03-01T01:41:42;4.90;46.20
15574;DHT22;7888;46.748;8.102;2023-03-01T01:44:27;5.00;46.30
15574;DHT22;7888;46.748;8.102;2023-03-01T01:47:11;5.00;46.50
15574;DHT22;7888;46.748;8.102;2023-03-01T01:49:44;5.00;46.50
15574;DHT22;7888;46.748;8.102;2023-03-01T01:54:56;5.00;46.40
15574;DHT22;7888;46.748;8.102;2023-03-01T01:57:29;5.00;46.40
15574;DHT22;7888;46.748;8.102;2023-03-01T02:00:07;5.00;46.30
15574;DHT22;7888;46.748;8.102;2023-03-01T02:02:39;4.90;46.30
15574;DHT22;7888;46.748;8.102;2023-03-01T02:08:04;4.90;46.50
15574;DHT22;7888;46.748;8.102;2023-03-01T02:10:33;4.90;46.30
15574;DHT22;7888;46.748;8.102;2023-03-01T02:13:01;4.90;46.30
15574;DHT22;7888;46.748;8.102;2023-03-01T02:15:32;4.90;46.40
15574;DHT22;7888;46.748;8.102;2023-03-01T02:17:59;4.80;46.40
15574;DHT22;7888;46.748;8.102;2023-03-01T02:21:08;4.80;46.40
15574;DHT22;7888;46.748;8.102;2023-03-01T02:23:34;4.80;46.50
15574;DHT22;7888;46.748;8.102;2023-03-01T02:28:40;4.80;46.50
15574;DHT22;7888;46.748;8.102;2023-03-01T02:31:09;4.80;46.60
15574;DHT22;7888;46.748;8.102;2023-03-01T02:33:57;4.80;46.40
15574;DHT22;7888;46.748;8.102;2023-03-01T02:36:26;4.80;46.40
15574;DHT22;7888;46.748;8.102;2023-03-01T02:39:00;4.70;46.50
15574;DHT22;7888;46.748;8.102;2023-03-01T02:41:34;4.70;46.50
15574;DHT22;7888;46.748;8.102;2023-03-01T02:44:02;4.70;46.60
15574;DHT22;7888;46.748;8.102;2023-03-01T02:46:29;4.70;46.60
15574;DHT22;7888;46.748;8.102;2023-03-01T02:48:58;4.70;46.50
15574;DHT22;7888;46.748;8.102;2023-03-01T02:54:08;4.70;46.70
15574;DHT22;7888;46.748;8.102;2023-03-01T02:56:36;4.70;46.70
15574;DHT22;7888;46.748;8.102;2023-03-01T02:59:02;4.70;46.60
15574;DHT22;7888;46.748;8.102;2023-03-01T03:01:28;4.70;46.60
15574;DHT22;7888;46.748;8.102;2023-03-01T03:04:11;4.70;46.60
15574;DHT22;7888;46.748;8.102;2023-03-01T03:06:47;4.70;46.70
15574;DHT22;7888;46.748;8.102;2023-03-01T03:09:15;4.70;46.70
15574;DHT22;7888;46.748;8.102;2023-03-01T03:11:43;4.70;46.70
15574;DHT22;7888;46.748;8.102;2023-03-01T03:14:10;4.70;46.70
15574;DHT22;7888;46.748;8.102;2023-03-01T03:16:45;4.70;46.70
15574;DHT22;7888;46.748;8.102;2023-03-01T03:19:13;4.70;46.80
15574;DHT22;7888;46.748;8.102;2023-03-01T03:21:39;4.70;46.70
15574;DHT22;7888;46.748;8.102;2023-03-01T03:24:05;4.80;46.70
15574;DHT22;7888;46.748;8.102;2023-03-01T03:26:32;4.70;46.70
15574;DHT22;7888;46.748;8.102;2023-03-01T03:28:58;4.70;46.70
15574;DHT22;7888;46.748;8.102;2023-03-01T03:31:24;4.70;46.70
15574;DHT22;7888;46.748;8.102;2023-03-01T03:33:50;4.70;46.70
15574;DHT22;7888;46.748;8.102;2023-03-01T03:36:18;4.70;46.80
15574;DHT22;7888;46.748;8.102;2023-03-01T03:38:45;4.70;46.70
15574;DHT22;7888;46.748;8.102;2023-03-01T03:41:12;4.70;46.80
15574;DHT22;7888;46.748;8.102;2023-03-01T03:43:39;4.70;46.80
15574;DHT22;7888;46.748;8.102;2023-03-01T03:46:09;4.70;46.90
15574;DHT22;7888;46.748;8.102;2023-03-01T03:48:39;4.70;46.80
15574;DHT22;7888;46.748;8.102;2023-03-01T03:51:06;4.70;46.90
15574;DHT22;7888;46.748;8.102;2023-03-01T03:53:33;4.70;46.80
15574;DHT22;7888;46.748;8.102;2023-03-01T03:55:59;4.70;46.80
15574;DHT22;7888;46.748;8.102;2023-03-01T03:58:25;4.70;46.90
15574;DHT22;7888;46.748;8.102;2023-03-01T04:00:54;4.70;46.90
15574;DHT22;7888;46.748;8.102;2023-03-01T04:03:23;4.70;46.90
15574;DHT22;7888;46.748;8.102;2023-03-01T04:05:51;4.70;46.90
15574;DHT22;7888;46.748;8.102;2023-03-01T04:08:19;4.70;46.80
15574;DHT22;7888;46.748;8.102;2023-03-01T04:10:50;4.70;46.80
15574;DHT22;7888;46.748;8.102;2023-03-01T04:13:20;4.70;46.90
15574;DHT22;7888;46.748;8.102;2023-03-01T04:15:51;4.70;46.90
15574;DHT22;7888;46.748;8.102;2023-03-01T04:18:19;4.70;47.00
15574;DHT22;7888;46.748;8.102;2023-03-01T04:20:47;4.60;46.90
15574;DHT22;7888;46.748;8.102;2023-03-01T04:23:17;4.70;46.90
15574;DHT22;7888;46.748;8.102;2023-03-01T04:25:56;4.60;47.00
15574;DHT22;7888;46.748;8.102;2023-03-01T04:28:26;4.70;47.10
15574;DHT22;7888;46.748;8.102;2023-03-01T04:30:57;4.60;46.90
15574;DHT22;7888;46.748;8.102;2023-03-01T04:33:25;4.60;47.10
15574;DHT22;7888;46.748;8.102;2023-03-01T04:35:51;4.60;47.00
15574;DHT22;7888;46.748;8.102;2023-03-01T04:38:18;4.50;47.10
15574;DHT22;7888;46.748;8.102;2023-03-01T04:40:44;4.50;47.10
15574;DHT22;7888;46.748;8.102;2023-03-01T04:43:11;4.50;47.10
15574;DHT22;7888;46.748;8.102;2023-03-01T04:45:41;4.40;47.10
15574;DHT22;7888;46.748;8.102;2023-03-01T04:48:07;4.40;47.30
15574;DHT22;7888;46.748;8.102;2023-03-01T04:50:33;4.30;47.10
15574;DHT22;7888;46.748;8.102;2023-03-01T04:53:00;4.40;47.30
15574;DHT22;7888;46.748;8.102;2023-03-01T04:55:27;4.30;47.30
15574;DHT22;7888;46.748;8.102;2023-03-01T04:57:54;4.30;47.30
15574;DHT22;7888;46.748;8.102;2023-03-01T05:00:21;4.30;47.40
15574;DHT22;7888;46.748;8.102;2023-03-01T05:02:56;4.30;47.40
15574;DHT22;7888;46.748;8.102;2023-03-01T05:05:28;4.40;47.60
15574;DHT22;7888;46.748;8.102;2023-03-01T05:08:01;4.40;47.50
15574;DHT22;7888;46.748;8.102;2023-03-01T05:10:30;4.40;47.40
15574;DHT22;7888;46.748;8.102;2023-03-01T05:12:58;4.40;47.40
15574;DHT22;7888;46.748;8.102;2023-03-01T05:15:25;4.40;47.40
15574;DHT22;7888;46.748;8.102;2023-03-01T05:17:57;4.40;47.50
15574;DHT22;7888;46.748;8.102;2023-03-01T05:20:25;4.40;47.40
15574;DHT22;7888;46.748;8.102;2023-03-01T05:22:56;4.40;47.50
15574;DHT22;7888;46.748;8.102;2023-03-01T05:25:24;4.40;47.60
15574;DHT22;7888;46.748;8.102;2023-03-01T05:27:50;4.40;47.60
15574;DHT22;7888;46.748;8.102;2023-03-01T05:30:17;4.40;47.60
15574;DHT22;7888;46.748;8.102;2023-03-01T05:32:48;4.40;47.60
15574;DHT22;7888;46.748;8.102;2023-03-01T05:35:17;4.40;47.60
15574;DHT22;7888;46.748;8.102;2023-03-01T05:37:44;4.40;47.60
15574;DHT22;7888;46.748;8.102;2023-03-01T05:40:13;4.40;47.70
15574;DHT22;7888;46.748;8.102;2023-03-01T05:42:49;4.40;47.80
15574;DHT22;7888;46.748;8.102;2023-03-01T05:45:21;4.40;47.80
15574;DHT22;7888;46.748;8.102;2023-03-01T05:47:48;4.40;47.70
15574;DHT22;7888;46.748;8.102;2023-03-01T05:50:21;4.40;47.60
15574;DHT22;7888;46.748;8.102;2023-03-01T05:52:50;4.40;47.70
15574;DHT22;7888;46.748;8.102;2023-03-01T05:55:20;4.40;47.60
15574;DHT22;7888;46.748;8.102;2023-03-01T05:57:47;4.40;47.60
15574;DHT22;7888;46.748;8.102;2023-03-01T06:00:14;4.40;47.60
15574;DHT22;7888;46.748;8.102;2023-03-01T06:02:41;4.30;47.80
15574;DHT22;7888;46.748;8.102;2023-03-01T06:05:09;4.30;47.80
15574;DHT22;7888;46.748;8.102;2023-03-01T06:07:36;4.20;47.80
15574;DHT22;7888;46.748;8.102;2023-03-01T06:10:04;4.20;47.80
15574;DHT22;7888;46.748;8.102;2023-03-01T06:12:32;4.10;47.90
15574;DHT22;7888;46.748;8.102;2023-03-01T06:14:59;4.10;48.00
15574;DHT22;7888;46.748;8.102;2023-03-01T06:17:25;4.10;48.00
15574;DHT22;7888;46.748;8.102;2023-03-01T06:19:51;4.10;48.00
15574;DHT22;7888;46.748;8.102;2023-03-01T06:22:17;4.10;48.00
15574;DHT22;7888;46.748;8.102;2023-03-01T06:24:43;4.10;48.10
15574;DHT22;7888;46.748;8.102;2023-03-01T06:27:08;4.10;48.10
15574;DHT22;7888;46.748;8.102;2023-03-01T06:29:34;4.10;48.20
15574;DHT22;7888;46.748;8.102;2023-03-01T06:32:00;4.10;48.20
15574;DHT22;7888;46.748;8.102;2023-03-01T06:34:26;4.10;48.20
15574;DHT22;7888;46.748;8.102;2023-03-01T06:36:51;4.10;48.20
15574;DHT22;7888;46.748;8.102;2023-03-01T06:39:17;4.20;48.20
15574;DHT22;7888;46.748;8.102;2023-03-01T06:41:44;4.20;48.20
15574;DHT22;7888;46.748;8.102;2023-03-01T06:44:10;4.20;48.20
15574;DHT22;7888;46.748;8.102;2023-03-01T06:46:36;4.20;48.20
15574;DHT22;7888;46.748;8.102;2023-03-01T06:49:02;4.30;48.20
15574;DHT22;7888;46.748;8.102;2023-03-01T06:51:33;4.30;48.10
15574;DHT22;7888;46.748;8.102;2023-03-01T06:53:58;4.30;48.10
15574;DHT22;7888;46.748;8.102;2023-03-01T06:56:24;4.30;48.20
15574;DHT22;7888;46.748;8.102;2023-03-01T06:58:50;4.30;48.20
15574;DHT22;7888;46.748;8.102;2023-03-01T07:01:16;4.30;48.20
15574;DHT22;7888;46.748;8.102;2023-03-01T07:03:41;4.30;48.30
15574;DHT22;7888;46.748;8.102;2023-03-01T07:06:09;4.30;48.20
15574;DHT22;7888;46.748;8.102;2023-03-01T07:08:35;4.30;48.20
15574;DHT22;7888;46.748;8.102;2023-03-01T07:11:01;4.30;48.20
15574;DHT22;7888;46.748;8.102;2023-03-01T07:13:31;4.40;48.20
15574;DHT22;7888;46.748;8.102;2023-03-01T07:15:57;4.40;48.20
15574;DHT22;7888;46.748;8.102;2023-03-01T07:18:23;4.40;48.20
15574;DHT22;7888;46.748;8.102;2023-03-01T07:20:49;4.40;48.20
15574;DHT22;7888;46.748;8.102;2023-03-01T07:23:15;4.40;48.20
15574;DHT22;7888;46.748;8.102;2023-03-01T07:25:41;4.40;48.20
15574;DHT22;7888;46.748;8.102;2023-03-01T07:28:07;4.40;48.20
15574;DHT22;7888;46.748;8.102;2023-03-01T07:30:33;4.40;48.20
15574;DHT22;7888;46.748;8.102;2023-03-01T07:32:59;4.40;48.20
15574;DHT22;7888;46.748;8.102;2023-03-01T07:35:26;4.40;48.20
15574;DHT22;7888;46.748;8.102;2023-03-01T07:37:52;4.30;48.20
15574;DHT22;7888;46.748;8.102;2023-03-01T07:40:19;4.30;48.20
15574;DHT22;7888;46.748;8.102;2023-03-01T07:42:45;4.30;48.30
15574;DHT22;7888;46.748;8.102;2023-03-01T07:45:11;4.30;48.30
15574;DHT22;7888;46.748;8.102;2023-03-01T07:47:38;4.30;48.30
15574;DHT22;7888;46.748;8.102;2023-03-01T07:50:05;4.30;48.30
15574;DHT22;7888;46.748;8.102;2023-03-01T07:52:31;4.30;48.40
15574;DHT22;7888;46.748;8.102;2023-03-01T07:54:57;4.30;48.40
15574;DHT22;7888;46.748;8.102;2023-03-01T07:57:23;4.30;48.40
15574;DHT22;7888;46.748;8.102;2023-03-01T07:59:49;4.30;48.50
15574;DHT22;7888;46.748;8.102;2023-03-01T08:02:15;4.30;48.40
15574;DHT22;7888;46.748;8.102;2023-03-01T08:04:42;4.30;48.50
15574;DHT22;7888;46.748;8.102;2023-03-01T08:07:08;4.30;48.40
15574;DHT22;7888;46.748;8.102;2023-03-01T08:09:35;4.30;48.40
15574;DHT22;7888;46.748;8.102;2023-03-01T08:12:03;4.30;48.60
15574;DHT22;7888;46.748;8.102;2023-03-01T08:14:30;4.20;48.50
15574;DHT22;7888;46.748;8.102;2023-03-01T08:16:59;4.20;48.60
15574;DHT22;7888;46.748;8.102;2023-03-01T08:19:28;4.20;48.70
15574;DHT22;7888;46.748;8.102;2023-03-01T08:21:54;4.20;48.70
15574;DHT22;7888;46.748;8.102;2023-03-01T08:24:20;4.20;48.90
15574;DHT22;7888;46.748;8.102;2023-03-01T08:26:46;4.20;48.70
15574;DHT22;7888;46.748;8.102;2023-03-01T08:29:12;4.20;48.80
15574;DHT22;7888;46.748;8.102;2023-03-01T08:31:39;4.20;48.90
15574;DHT22;7888;46.748;8.102;2023-03-01T08:34:09;4.10;48.90
15574;DHT22;7888;46.748;8.102;2023-03-01T08:36:40;4.10;49.00
15574;DHT22;7888;46.748;8.102;2023-03-01T08:39:12;4.10;48.90
15574;DHT22;7888;46.748;8.102;2023-03-01T08:41:41;4.20;49.00
15574;DHT22;7888;46.748;8.102;2023-03-01T08:44:07;4.20;49.00
15574;DHT22;7888;46.748;8.102;2023-03-01T08:46:37;4.20;49.00
15574;DHT22;7888;46.748;8.102;2023-03-01T08:49:16;4.20;49.00
15574;DHT22;7888;46.748;8.102;2023-03-01T08:51:45;4.20;49.00
15574;DHT22;7888;46.748;8.102;2023-03-01T08:54:14;4.30;49.00
15574;DHT22;7888;46.748;8.102;2023-03-01T08:56:42;4.30;49.10
15574;DHT22;7888;46.748;8.102;2023-03-01T08:59:13;4.30;49.00
15574;DHT22;7888;46.748;8.102;2023-03-01T09:01:40;4.30;49.00
15574;DHT22;7888;46.748;8.102;2023-03-01T09:04:10;4.40;49.00
15574;DHT22;7888;46.748;8.102;2023-03-01T09:06:37;4.40;49.10
15574;DHT22;7888;46.748;8.102;2023-03-01T09:09:06;4.40;49.00
15574;DHT22;7888;46.748;8.102;2023-03-01T09:11:37;4.50;49.10
15574;DHT22;7888;46.748;8.102;2023-03-01T09:14:05;4.60;49.00
15574;DHT22;7888;46.748;8.102;2023-03-01T09:16:30;4.70;48.90
15574;DHT22;7888;46.748;8.102;2023-03-01T09:19:01;4.70;48.90
15574;DHT22;7888;46.748;8.102;2023-03-01T09:21:28;4.70;48.60
15574;DHT22;7888;46.748;8.102;2023-03-01T09:23:56;4.70;48.60
15574;DHT22;7888;46.748;8.102;2023-03-01T09:26:23;4.80;48.80
15574;DHT22;7888;46.748;8.102;2023-03-01T09:28:51;4.80;48.80
15574;DHT22;7888;46.748;8.102;2023-03-01T09:31:21;4.90;48.90
15574;DHT22;7888;46.748;8.102;2023-03-01T09:33:51;4.90;48.70
15574;DHT22;7888;46.748;8.102;2023-03-01T09:36:20;5.00;48.70
15574;DHT22;7888;46.748;8.102;2023-03-01T09:38:48;5.10;48.70
15574;DHT22;7888;46.748;8.102;2023-03-01T09:44:18;5.20;48.70
15574;DHT22;7888;46.748;8.102;2023-03-01T09:47:20;5.20;48.60
15574;DHT22;7888;46.748;8.102;2023-03-01T09:52:46;5.40;48.50
15574;DHT22;7888;46.748;8.102;2023-03-01T09:55:37;5.40;48.40
15574;DHT22;7888;46.748;8.102;2023-03-01T10:01:45;5.50;48.30
15574;DHT22;7888;46.748;8.102;2023-03-01T10:04:26;5.60;48.20
15574;DHT22;7888;46.748;8.102;2023-03-01T10:07:22;5.60;48.10
15574;DHT22;7888;46.748;8.102;2023-03-01T10:09:55;5.60;48.10
15574;DHT22;7888;46.748;8.102;2023-03-01T10:12:25;5.60;48.10
15574;DHT22;7888;46.748;8.102;2023-03-01T10:15:01;5.70;48.20
15574;DHT22;7888;46.748;8.102;2023-03-01T10:23:14;5.80;48.10
15574;DHT22;7888;46.748;8.102;2023-03-01T10:31:51;5.90;48.00
15574;DHT22;7888;46.748;8.102;2023-03-01T10:37:22;6.00;48.00
15574;DHT22;7888;46.748;8.102;2023-03-01T10:40:03;6.10;48.00
15574;DHT22;7888;46.748;8.102;2023-03-01T10:42:39;6.10;47.90
15574;DHT22;7888;46.748;8.102;2023-03-01T10:47:44;6.20;47.70
15574;DHT22;7888;46.748;8.102;2023-03-01T10:50:21;6.20;47.70
15574;DHT22;7888;46.748;8.102;2023-03-01T10:52:59;6.20;47.60
15574;DHT22;7888;46.748;8.102;2023-03-01T10:55:39;6.20;47.60
15574;DHT22;7888;46.748;8.102;2023-03-01T11:00:52;6.20;47.50
15574;DHT22;7888;46.748;8.102;2023-03-01T11:03:25;6.20;47.50
15574;DHT22;7888;46.748;8.102;2023-03-01T11:08:43;6.30;47.70
15574;DHT22;7888;46.748;8.102;2023-03-01T11:11:31;6.30;47.70
15574;DHT22;7888;46.748;8.102;2023-03-01T11:14:17;6.40;47.50
15574;DHT22;7888;46.748;8.102;2023-03-01T11:16:57;6.40;47.50
15574;DHT22;7888;46.748;8.102;2023-03-01T11:20:00;6.40;47.40
15574;DHT22;7888;46.748;8.102;2023-03-01T11:22:30;6.40;47.30
15574;DHT22;7888;46.748;8.102;2023-03-01T11:24:59;6.50;47.50
15574;DHT22;7888;46.748;8.102;2023-03-01T11:27:28;6.50;47.50
15574;DHT22;7888;46.748;8.102;2023-03-01T11:30:15;6.60;47.40
15574;DHT22;7888;46.748;8.102;2023-03-01T11:33:10;6.60;47.40
15574;DHT22;7888;46.748;8.102;2023-03-01T11:35:55;6.70;47.50
15574;DHT22;7888;46.748;8.102;2023-03-01T11:38:29;6.80;47.40
15574;DHT22;7888;46.748;8.102;2023-03-01T11:41:18;6.80;47.50
15574;DHT22;7888;46.748;8.102;2023-03-01T11:47:03;7.00;47.50
15574;DHT22;7888;46.748;8.102;2023-03-01T11:50:08;7.10;47.30
15574;DHT22;7888;46.748;8.102;2023-03-01T12:07:31;7.30;46.70
15574;DHT22;7888;46.748;8.102;2023-03-01T12:10:19;7.40;46.70
15574;DHT22;7888;46.748;8.102;2023-03-01T12:15:51;7.40;46.50
15574;DHT22;7888;46.748;8.102;2023-03-01T12:30:34;7.40;46.40
15574;DHT22;7888;46.748;8.102;2023-03-01T12:33:32;7.40;46.30
15574;DHT22;7888;46.748;8.102;2023-03-01T12:39:19;7.40;46.30
15574;DHT22;7888;46.748;8.102;2023-03-01T12:42:51;7.40;46.30
15574;DHT22;7888;46.748;8.102;2023-03-01T12:51:03;7.50;46.70
15574;DHT22;7888;46.748;8.102;2023-03-01T12:53:44;7.50;46.60
15574;DHT22;7888;46.748;8.102;2023-03-01T12:56:17;7.60;46.40
15574;DHT22;7888;46.748;8.102;2023-03-01T13:01:39;7.60;46.40
15574;DHT22;7888;46.748;8.102;2023-03-01T13:10:43;7.80;46.80
15574;DHT22;7888;46.748;8.102;2023-03-01T13:15:52;8.10;46.60
15574;DHT22;7888;46.748;8.102;2023-03-01T13:20:47;8.20;46.10
15574;DHT22;7888;46.748;8.102;2023-03-01T13:33:48;8.50;46.10
15574;DHT22;7888;46.748;8.102;2023-03-01T13:38:57;8.70;46.50
15574;DHT22;7888;46.748;8.102;2023-03-01T13:46:56;8.90;45.20
15574;DHT22;7888;46.748;8.102;2023-03-01T13:49:31;8.90;45.40
15574;DHT22;7888;46.748;8.102;2023-03-01T13:52:43;8.90;45.50
15574;DHT22;7888;46.748;8.102;2023-03-01T13:57:44;9.10;46.00
15574;DHT22;7888;46.748;8.102;2023-03-01T14:03:13;9.30;45.70
15574;DHT22;7888;46.748;8.102;2023-03-01T14:06:02;9.50;45.70
15574;DHT22;7888;46.748;8.102;2023-03-01T14:08:37;9.60;45.40
15574;DHT22;7888;46.748;8.102;2023-03-01T14:11:18;9.70;45.40
15574;DHT22;7888;46.748;8.102;2023-03-01T14:20:00;9.90;44.70
15574;DHT22;7888;46.748;8.102;2023-03-01T14:22:34;9.90;44.60
15574;DHT22;7888;46.748;8.102;2023-03-01T14:25:14;9.90;44.20
15574;DHT22;7888;46.748;8.102;2023-03-01T14:27:44;9.90;44.00
15574;DHT22;7888;46.748;8.102;2023-03-01T14:30:22;9.90;44.20
15574;DHT22;7888;46.748;8.102;2023-03-01T14:32:59;9.80;43.80
15574;DHT22;7888;46.748;8.102;2023-03-01T14:35:29;9.70;44.00
15574;DHT22;7888;46.748;8.102;2023-03-01T14:37:57;9.70;44.30
15574;DHT22;7888;46.748;8.102;2023-03-01T14:43:08;9.80;44.40
15574;DHT22;7888;46.748;8.102;2023-03-01T14:45:35;9.80;44.40
15574;DHT22;7888;46.748;8.102;2023-03-01T14:48:04;9.90;44.80
15574;DHT22;7888;46.748;8.102;2023-03-01T14:50:34;10.00;44.90
15574;DHT22;7888;46.748;8.102;2023-03-01T14:53:06;10.10;44.70
15574;DHT22;7888;46.748;8.102;2023-03-01T14:55:42;10.20;44.50
15574;DHT22;7888;46.748;8.102;2023-03-01T14:58:18;10.30;44.80
15574;DHT22;7888;46.748;8.102;2023-03-01T15:00:55;10.50;44.60
15574;DHT22;7888;46.748;8.102;2023-03-01T15:03:32;10.60;44.30
15574;DHT22;7888;46.748;8.102;2023-03-01T15:06:03;10.70;43.90
15574;DHT22;7888;46.748;8.102;2023-03-01T15:08:32;10.70;44.00
15574;DHT22;7888;46.748;8.102;2023-03-01T15:11:24;10.70;43.80
15574;DHT22;7888;46.748;8.102;2023-03-01T15:13:54;10.80;43.10
15574;DHT22;7888;46.748;8.102;2023-03-01T15:16:26;10.80;43.80
15574;DHT22;7888;46.748;8.102;2023-03-01T15:18:57;10.80;43.20
15574;DHT22;7888;46.748;8.102;2023-03-01T15:21:31;10.90;43.10
15574;DHT22;7888;46.748;8.102;2023-03-01T15:26:52;10.80;42.50
15574;DHT22;7888;46.748;8.102;2023-03-01T15:29:25;10.70;42.80
15574;DHT22;7888;46.748;8.102;2023-03-01T15:31:59;10.60;42.70
15574;DHT22;7888;46.748;8.102;2023-03-01T15:34:48;10.50;42.50
15574;DHT22;7888;46.748;8.102;2023-03-01T15:43:00;10.20;42.60
15574;DHT22;7888;46.748;8.102;2023-03-01T15:45:30;10.10;42.70
15574;DHT22;7888;46.748;8.102;2023-03-01T15:48:22;10.00;42.70
15574;DHT22;7888;46.748;8.102;2023-03-01T15:50:58;9.90;42.60
15574;DHT22;7888;46.748;8.102;2023-03-01T15:53:27;9.80;42.60
15574;DHT22;7888;46.748;8.102;2023-03-01T15:55:54;9.80;42.70
15574;DHT22;7888;46.748;8.102;2023-03-01T15:58:22;9.70;43.10
15574;DHT22;7888;46.748;8.102;2023-03-01T16:00:50;9.60;43.10
15574;DHT22;7888;46.748;8.102;2023-03-01T16:03:21;9.60;43.00
15574;DHT22;7888;46.748;8.102;2023-03-01T16:05:51;9.50;43.00
15574;DHT22;7888;46.748;8.102;2023-03-01T16:08:18;9.50;43.60
15574;DHT22;7888;46.748;8.102;2023-03-01T16:10:44;9.40;43.00
15574;DHT22;7888;46.748;8.102;2023-03-01T16:13:14;9.30;43.30
15574;DHT22;7888;46.748;8.102;2023-03-01T16:15:40;9.20;42.90
15574;DHT22;7888;46.748;8.102;2023-03-01T16:18:06;9.20;43.10
15574;DHT22;7888;46.748;8.102;2023-03-01T16:20:34;9.10;43.10
15574;DHT22;7888;46.748;8.102;2023-03-01T16:23:04;9.10;43.20
15574;DHT22;7888;46.748;8.102;2023-03-01T16:25:33;9.00;43.20
15574;DHT22;7888;46.748;8.102;2023-03-01T16:28:00;8.90;43.30
15574;DHT22;7888;46.748;8.102;2023-03-01T16:30:30;8.90;43.40
15574;DHT22;7888;46.748;8.102;2023-03-01T16:32:56;8.80;43.50
15574;DHT22;7888;46.748;8.102;2023-03-01T16:35:22;8.80;43.50
15574;DHT22;7888;46.748;8.102;2023-03-01T16:37:49;8.80;43.80
15574;DHT22;7888;46.748;8.102;2023-03-01T16:40:23;8.70;43.90
15574;DHT22;7888;46.748;8.102;2023-03-01T16:42:52;8.70;43.80
15574;DHT22;7888;46.748;8.102;2023-03-01T16:45:20;8.70;43.90
15574;DHT22;7888;46.748;8.102;2023-03-01T16:47:46;8.70;44.10
15574;DHT22;7888;46.748;8.102;2023-03-01T16:50:12;8.70;44.20
15574;DHT22;7888;46.748;8.102;2023-03-01T16:52:38;8.70;44.10
15574;DHT22;7888;46.748;8.102;2023-03-01T16:55:05;8.70;44.00
15574;DHT22;7888;46.748;8.102;2023-03-01T16:57:36;8.70;43.90
15574;DHT22;7888;46.748;8.102;2023-03-01T17:00:05;8.70;43.90
15574;DHT22;7888;46.748;8.102;2023-03-01T17:02:36;8.60;43.90
15574;DHT22;7888;46.748;8.102;2023-03-01T17:05:03;8.60;43.90
15574;DHT22;7888;46.748;8.102;2023-03-01T17:07:30;8.50;43.90
15574;DHT22;7888;46.748;8.102;2023-03-01T17:10:02;8.50;43.90
15574;DHT22;7888;46.748;8.102;2023-03-01T17:12:29;8.50;43.90
15574;DHT22;7888;46.748;8.102;2023-03-01T17:14:55;8.40;43.90
15574;DHT22;7888;46.748;8.102;2023-03-01T17:17:21;8.30;44.00
15574;DHT22;7888;46.748;8.102;2023-03-01T17:19:47;8.30;44.00
15574;DHT22;7888;46.748;8.102;2023-03-01T17:22:13;8.30;44.10
15574;DHT22;7888;46.748;8.102;2023-03-01T17:24:40;8.20;44.10
15574;DHT22;7888;46.748;8.102;2023-03-01T17:27:07;8.20;44.20
15574;DHT22;7888;46.748;8.102;2023-03-01T17:29:33;8.20;44.20
15574;DHT22;7888;46.748;8.102;2023-03-01T17:32:00;8.20;44.20
15574;DHT22;7888;46.748;8.102;2023-03-01T17:34:26;8.20;44.20
15574;DHT22;7888;46.748;8.102;2023-03-01T17:36:52;8.10;44.20
15574;DHT22;7888;46.748;8.102;2023-03-01T17:39:19;8.10;44.20
15574;DHT22;7888;46.748;8.102;2023-03-01T17:41:50;8.10;44.20
15574;DHT22;7888;46.748;8.102;2023-03-01T17:44:19;8.00;44.20
15574;DHT22;7888;46.748;8.102;2023-03-01T17:46:45;8.00;44.20
15574;DHT22;7888;46.748;8.102;2023-03-01T17:49:11;8.00;44.20
15574;DHT22;7888;46.748;8.102;2023-03-01T17:51:37;7.90;44.20
15574;DHT22;7888;46.748;8.102;2023-03-01T17:54:03;7.90;44.20
15574;DHT22;7888;46.748;8.102;2023-03-01T17:56:30;7.80;44.30
15574;DHT22;7888;46.748;8.102;2023-03-01T17:58:59;7.80;44.30
15574;DHT22;7888;46.748;8.102;2023-03-01T18:01:25;7.80;44.40
15574;DHT22;7888;46.748;8.102;2023-03-01T18:03:52;7.80;44.30
15574;DHT22;7888;46.748;8.102;2023-03-01T18:06:22;7.70;44.30
15574;DHT22;7888;46.748;8.102;2023-03-01T18:08:49;7.60;44.30
15574;DHT22;7888;46.748;8.102;2023-03-01T18:11:18;7.70;44.40
15574;DHT22;7888;46.748;8.102;2023-03-01T18:13:45;7.60;44.50
15574;DHT22;7888;46.748;8.102;2023-03-01T18:16:13;7.60;44.50
15574;DHT22;7888;46.748;8.102;2023-03-01T18:18:40;7.50;44.50
15574;DHT22;7888;46.748;8.102;2023-03-01T18:21:07;7.50;44.50
15574;DHT22;7888;46.748;8.102;2023-03-01T18:23:34;7.40;44.50
15574;DHT22;7888;46.748;8.102;2023-03-01T18:26:04;7.40;44.60
15574;DHT22;7888;46.748;8.102;2023-03-01T18:28:32;7.30;44.60
15574;DHT22;7888;46.748;8.102;2023-03-01T18:31:00;7.30;44.70
15574;DHT22;7888;46.748;8.102;2023-03-01T18:33:38;7.30;44.90
15574;DHT22;7888;46.748;8.102;2023-03-01T18:36:12;7.20;44.90
15574;DHT22;7888;46.748;8.102;2023-03-01T18:38:41;7.20;45.10
15574;DHT22;7888;46.748;8.102;2023-03-01T18:41:07;7.20;45.10